createdAt,value
2019-02-17T00:00:43.689Z,36.37
2019-02-17T00:03:15.769Z,33.50
2019-02-17T00:05:47.527Z,34.00
2019-02-17T00:08:19.295Z,37.40
2019-02-17T00:10:50.986Z,34.00
2019-02-17T00:13:22.666Z,33.40
2019-02-17T00:15:54.361Z,34.97
2019-02-17T00:18:26.138Z,33.00
2019-02-17T00:20:57.833Z,35.83
2019-02-17T00:23:29.513Z,34.50
2019-02-17T00:26:01.198Z,38.77
2019-02-17T00:28:32.884Z,33.17
2019-02-17T00:31:04.661Z,34.33
2019-02-17T00:33:36.337Z,34.43
2019-02-17T00:36:08.024Z,36.03
2019-02-17T00:38:39.728Z,30.70
2019-02-17T00:41:11.408Z,32.63
2019-02-17T00:43:43.089Z,34.87
2019-02-17T00:46:14.754Z,35.50
2019-02-17T00:48:46.456Z,35.37
2019-02-17T00:51:18.142Z,33.77
2019-02-17T00:53:50.206Z,32.53
2019-02-17T00:56:21.932Z,34.10
2019-02-17T00:58:53.714Z,33.63
2019-02-17T01:01:25.456Z,39.80
2019-02-17T01:03:57.248Z,32.90
2019-02-17T01:06:29.002Z,34.27
2019-02-17T01:09:00.819Z,34.93
2019-02-17T01:11:32.538Z,31.63
2019-02-17T01:14:04.296Z,37.17
2019-02-17T01:16:36.028Z,31.23
2019-02-17T01:19:07.730Z,33.60
2019-02-17T01:21:39.491Z,35.10
2019-02-17T01:24:11.275Z,32.73
2019-02-17T01:26:43.069Z,33.63
2019-02-17T01:29:20.532Z,28.83
2019-02-17T01:31:48.197Z,31.93
2019-02-17T01:34:19.882Z,27.20
2019-02-17T01:36:51.628Z,35.50
2019-02-17T01:39:23.307Z,31.37
2019-02-17T01:41:55.015Z,33.13
2019-02-17T01:44:26.773Z,30.10
2019-02-17T01:46:58.501Z,30.87
2019-02-17T01:49:30.264Z,27.33
2019-02-17T01:52:01.968Z,26.97
2019-02-17T01:54:33.731Z,27.07
2019-02-17T01:57:05.435Z,30.10
2019-02-17T01:59:37.153Z,25.60
2019-02-17T02:02:08.889Z,35.40
2019-02-17T02:04:40.638Z,31.60
2019-02-17T02:07:12.350Z,34.40
2019-02-17T02:09:44.046Z,33.20
2019-02-17T02:12:15.739Z,26.83
2019-02-17T02:14:47.517Z,30.83
2019-02-17T02:17:19.270Z,29.37
2019-02-17T02:19:50.967Z,32.77
2019-02-17T02:22:22.742Z,28.37
2019-02-17T02:24:54.419Z,33.43
2019-02-17T02:27:26.110Z,31.33
2019-02-17T02:29:57.811Z,30.87
2019-02-17T02:32:29.503Z,34.63
2019-02-17T02:35:01.235Z,34.67
2019-02-17T02:37:33.020Z,31.27
2019-02-17T02:40:05.066Z,32.77
2019-02-17T02:42:36.745Z,29.77
2019-02-17T02:45:09.520Z,30.30
2019-02-17T02:47:41.211Z,28.90
2019-02-17T02:50:12.960Z,25.40
2019-02-17T02:52:44.664Z,32.27
2019-02-17T02:55:16.384Z,32.97
2019-02-17T02:57:48.168Z,32.43
2019-02-17T03:00:19.875Z,34.93
2019-02-17T03:02:51.594Z,30.90
2019-02-17T03:05:23.292Z,33.80
2019-02-17T03:07:55.047Z,27.40
2019-02-17T03:10:26.803Z,31.03
2019-02-17T03:12:58.506Z,30.43
2019-02-17T03:15:30.177Z,30.00
2019-02-17T03:18:01.954Z,28.87
2019-02-17T03:20:33.619Z,31.27
2019-02-17T03:23:05.302Z,33.83
2019-02-17T03:25:37.007Z,34.13
2019-02-17T03:28:08.731Z,31.50
2019-02-17T03:30:40.405Z,30.87
2019-02-17T03:33:12.170Z,27.03
2019-02-17T03:35:44.599Z,27.47
2019-02-17T03:38:16.381Z,28.73
2019-02-17T03:40:48.168Z,28.33
2019-02-17T03:43:19.930Z,27.23
2019-02-17T03:45:51.702Z,28.37
2019-02-17T03:48:23.425Z,28.63
2019-02-17T03:50:55.090Z,30.70
2019-02-17T03:53:26.771Z,31.73
2019-02-17T03:55:58.439Z,26.30
2019-02-17T03:58:30.162Z,31.20
2019-02-17T04:01:01.874Z,33.77
2019-02-17T04:03:33.581Z,27.30
2019-02-17T04:06:05.411Z,25.70
2019-02-17T04:08:37.247Z,35.20
2019-02-17T04:11:09.005Z,26.23
2019-02-17T04:13:41.115Z,31.03
2019-02-17T04:16:12.829Z,29.00
2019-02-17T04:18:44.533Z,30.00
2019-02-17T04:21:16.229Z,27.73
2019-02-17T04:23:47.944Z,29.50
2019-02-17T04:26:19.746Z,29.47
2019-02-17T04:28:51.592Z,30.60
2019-02-17T04:31:23.303Z,28.63
2019-02-17T04:33:55.070Z,26.33
2019-02-17T04:36:26.759Z,27.77
2019-02-17T04:38:58.437Z,29.90
2019-02-17T04:41:30.133Z,29.17
2019-02-17T04:44:01.832Z,27.70
2019-02-17T04:46:33.598Z,26.93
2019-02-17T04:49:05.272Z,29.43
2019-02-17T04:51:36.974Z,26.40
2019-02-17T04:54:08.656Z,26.93
2019-02-17T04:56:40.417Z,29.60
2019-02-17T04:59:12.114Z,28.80
2019-02-17T05:01:43.820Z,24.50
2019-02-17T05:04:15.502Z,25.63
2019-02-17T05:06:47.178Z,26.10
2019-02-17T05:09:18.897Z,28.67
2019-02-17T05:11:50.577Z,30.83
2019-02-17T05:14:22.408Z,27.70
2019-02-17T05:16:54.102Z,30.53
2019-02-17T05:19:25.934Z,24.50
2019-02-17T05:21:57.667Z,36.97
2019-02-17T05:24:29.358Z,33.23
2019-02-17T05:27:01.138Z,29.63
2019-02-17T05:29:32.804Z,25.03
2019-02-17T05:32:04.508Z,26.97
2019-02-17T05:34:36.170Z,29.73
2019-02-17T05:37:07.920Z,29.73
2019-02-17T05:39:39.703Z,27.77
2019-02-17T05:42:11.384Z,25.07
2019-02-17T05:44:43.139Z,28.27
2019-02-17T05:47:14.847Z,35.27
2019-02-17T05:49:46.505Z,30.93
2019-02-17T05:52:18.238Z,28.13
2019-02-17T05:54:50.494Z,28.70
2019-02-17T05:57:22.462Z,27.23
2019-02-17T05:59:54.230Z,29.87
2019-02-17T06:02:25.929Z,29.37
2019-02-17T06:04:57.633Z,27.33
2019-02-17T06:07:29.360Z,27.33
2019-02-17T06:10:01.115Z,35.80
2019-02-17T06:12:32.899Z,27.70
2019-02-17T06:15:04.701Z,30.77
2019-02-17T06:17:36.463Z,28.67
2019-02-17T06:20:09.166Z,30.80
2019-02-17T06:22:40.924Z,25.33
2019-02-17T06:25:12.625Z,28.63
2019-02-17T06:27:44.314Z,29.03
2019-02-17T06:30:16.013Z,30.33
2019-02-17T06:32:47.713Z,26.33
2019-02-17T06:35:19.374Z,26.43
2019-02-17T06:37:51.063Z,28.37
2019-02-17T06:40:22.741Z,28.03
2019-02-17T06:42:54.508Z,25.70
2019-02-17T06:45:26.217Z,28.37
2019-02-17T06:47:57.915Z,29.90
2019-02-17T06:50:29.620Z,29.00
2019-02-17T06:53:01.297Z,28.83
2019-02-17T06:55:37.839Z,27.87
2019-02-17T06:58:09.554Z,29.97
2019-02-17T07:00:47.223Z,24.53
2019-02-17T07:03:18.953Z,27.90
2019-02-17T07:06:18.829Z,25.63
2019-02-17T07:08:50.693Z,25.47
2019-02-17T07:11:23.485Z,27.17
2019-02-17T07:13:55.399Z,28.60
2019-02-17T07:16:27.171Z,28.87
2019-02-17T07:18:58.929Z,25.67
2019-02-17T07:21:30.686Z,29.07
2019-02-17T07:24:02.374Z,28.80
2019-02-17T07:26:34.166Z,24.53
2019-02-17T07:29:05.945Z,21.80
2019-02-17T07:31:37.683Z,24.60
2019-02-17T07:34:09.483Z,26.87
2019-02-17T07:36:41.189Z,22.43
2019-02-17T07:39:13.003Z,26.17
2019-02-17T07:41:44.737Z,23.50
2019-02-17T07:44:16.459Z,22.10
2019-02-17T07:46:48.178Z,28.40
2019-02-17T07:49:19.923Z,27.97
2019-02-17T07:51:51.595Z,24.83
2019-02-17T07:54:23.383Z,19.70
2019-02-17T07:56:55.051Z,23.47
2019-02-17T07:59:26.743Z,22.80
2019-02-17T08:01:58.410Z,22.97
2019-02-17T08:04:30.077Z,22.27
2019-02-17T08:07:01.777Z,22.50
2019-02-17T08:09:33.474Z,23.93
2019-02-17T08:12:05.155Z,21.93
2019-02-17T08:14:36.906Z,23.23
2019-02-17T08:17:08.608Z,16.93
2019-02-17T08:19:40.276Z,27.00
2019-02-17T08:22:12.088Z,19.47
2019-02-17T08:24:44.440Z,20.40
2019-02-17T08:27:16.135Z,23.17
2019-02-17T08:29:47.846Z,20.37
2019-02-17T08:32:19.654Z,20.30
2019-02-17T08:34:53.160Z,20.97
2019-02-17T08:37:24.828Z,18.40
2019-02-17T08:39:56.536Z,18.53
2019-02-17T08:42:28.308Z,20.90
2019-02-17T08:45:00.019Z,22.07
2019-02-17T08:47:31.704Z,24.70
2019-02-17T08:50:03.541Z,21.10
2019-02-17T08:52:35.327Z,24.10
2019-02-17T08:55:08.260Z,20.08
2019-02-17T08:57:40.020Z,25.30
2019-02-17T09:00:12.570Z,23.90
2019-02-17T09:02:44.401Z,22.10
2019-02-17T09:05:16.214Z,20.50
2019-02-17T09:07:48.047Z,18.10
2019-02-17T09:10:19.765Z,20.00
2019-02-17T09:12:51.469Z,20.60
2019-02-17T09:15:23.169Z,17.42
2019-02-17T09:17:54.869Z,20.70
2019-02-17T09:20:26.586Z,22.80
2019-02-17T09:22:58.342Z,24.33
2019-02-17T09:25:30.033Z,19.40
2019-02-17T09:28:01.731Z,22.20
2019-02-17T09:30:33.433Z,27.10
2019-02-17T09:33:05.217Z,21.42
2019-02-17T09:35:36.922Z,24.23
2019-02-17T09:38:08.684Z,22.48
2019-02-17T09:40:40.398Z,24.07
2019-02-17T09:43:12.095Z,21.77
2019-02-17T09:45:43.857Z,20.92
2019-02-17T09:48:15.579Z,20.90
2019-02-17T09:50:47.357Z,21.45
2019-02-17T09:53:19.135Z,22.57
2019-02-17T09:55:50.857Z,20.72
2019-02-17T09:58:22.567Z,17.77
2019-02-17T10:00:54.247Z,17.20
2019-02-17T10:03:26.030Z,18.98
2019-02-17T10:05:57.740Z,22.43
2019-02-17T10:08:30.549Z,17.82
2019-02-17T10:11:02.320Z,24.07
2019-02-17T10:13:34.030Z,21.73
2019-02-17T10:16:05.724Z,22.07
2019-02-17T10:18:37.428Z,17.85
2019-02-17T10:21:09.131Z,18.60
2019-02-17T10:23:40.839Z,22.20
2019-02-17T10:26:12.582Z,18.73
2019-02-17T10:28:44.361Z,21.90
2019-02-17T10:31:16.088Z,18.15
2019-02-17T10:33:48.160Z,21.48
2019-02-17T10:36:19.940Z,21.37
2019-02-17T10:38:51.740Z,18.20
2019-02-17T10:41:23.562Z,16.93
2019-02-17T10:43:55.345Z,18.03
2019-02-17T10:46:27.036Z,18.17
2019-02-17T10:49:09.575Z,20.97
2019-02-17T10:51:41.303Z,19.63
2019-02-17T10:54:13.111Z,16.30
2019-02-17T10:56:44.786Z,18.80
2019-02-17T10:59:16.608Z,20.30
2019-02-17T11:01:48.375Z,19.02
2019-02-17T11:04:20.223Z,21.68
2019-02-17T11:06:52.085Z,18.07
2019-02-17T11:09:24.081Z,14.58
2019-02-17T11:11:55.808Z,17.10
2019-02-17T11:14:27.561Z,19.70
2019-02-17T11:16:59.308Z,17.32
2019-02-17T11:19:31.862Z,16.52
2019-02-17T11:22:03.577Z,18.98
2019-02-17T11:24:35.254Z,18.17
2019-02-17T11:27:06.983Z,15.65
2019-02-17T11:29:38.665Z,19.67
2019-02-17T11:32:10.676Z,17.85
2019-02-17T11:34:42.385Z,17.02
2019-02-17T11:37:14.102Z,13.75
2019-02-17T11:39:46.089Z,16.15
2019-02-17T11:42:17.772Z,12.73
2019-02-17T11:44:49.546Z,17.23
2019-02-17T11:47:21.256Z,13.72
2019-02-17T11:49:53.016Z,14.85
2019-02-17T11:52:24.787Z,12.98
2019-02-17T11:54:56.550Z,13.18
2019-02-17T11:57:28.276Z,11.60
2019-02-17T11:59:59.945Z,10.25
2019-02-17T12:02:31.648Z,11.70
2019-02-17T12:05:03.342Z,12.63
2019-02-17T12:07:36.096Z,18.50
2019-02-17T12:10:08.860Z,15.85
2019-02-17T12:12:40.978Z,11.85
2019-02-17T12:15:13.002Z,10.95
2019-02-17T12:17:44.783Z,13.62
2019-02-17T12:20:35.081Z,11.50
2019-02-17T12:23:32.022Z,16.23
2019-02-17T12:26:11.717Z,13.48
2019-02-17T12:28:51.366Z,13.90
2019-02-17T12:31:26.581Z,16.67
2019-02-17T12:33:58.293Z,14.00
2019-02-17T12:36:29.982Z,11.78
2019-02-17T12:39:01.678Z,14.47
2019-02-17T12:41:33.370Z,12.05
2019-02-17T12:44:05.167Z,12.63
2019-02-17T12:46:36.851Z,11.43
2019-02-17T12:49:08.608Z,14.03
2019-02-17T12:51:40.341Z,12.37
2019-02-17T12:54:12.121Z,13.68
2019-02-17T12:56:43.841Z,13.25
2019-02-17T12:59:15.559Z,12.73
2019-02-17T13:01:47.283Z,13.50
2019-02-17T13:04:19.062Z,13.88
2019-02-17T13:06:50.829Z,13.83
2019-02-17T13:09:22.555Z,10.35
2019-02-17T13:11:54.275Z,10.90
2019-02-17T13:14:26.060Z,10.10
2019-02-17T13:16:57.788Z,12.40
2019-02-17T13:19:29.516Z,13.05
2019-02-17T13:22:01.205Z,14.15
2019-02-17T13:24:32.949Z,11.95
2019-02-17T13:27:04.673Z,12.28
2019-02-17T13:29:36.356Z,9.85
2019-02-17T13:32:08.103Z,15.43
2019-02-17T13:34:39.829Z,11.35
2019-02-17T13:37:11.506Z,12.47
2019-02-17T13:39:43.190Z,13.88
2019-02-17T13:42:14.990Z,14.10
2019-02-17T13:44:46.679Z,12.13
2019-02-17T13:47:18.435Z,16.23
2019-02-17T13:49:50.170Z,11.40
2019-02-17T13:52:21.952Z,9.13
2019-02-17T13:54:53.628Z,14.40
2019-02-17T13:57:25.368Z,12.20
2019-02-17T13:59:57.146Z,14.15
2019-02-17T14:02:28.861Z,12.10
2019-02-17T14:05:00.540Z,10.82
2019-02-17T14:07:32.298Z,12.37
2019-02-17T14:10:04.029Z,10.95
2019-02-17T14:12:35.728Z,10.23
2019-02-17T14:15:09.830Z,10.25
2019-02-17T14:17:41.568Z,11.80
2019-02-17T14:20:13.367Z,11.43
2019-02-17T14:22:45.095Z,10.80
2019-02-17T14:25:16.840Z,12.85
2019-02-17T14:27:48.644Z,12.65
2019-02-17T14:30:20.551Z,12.13
2019-02-17T14:32:52.229Z,8.88
2019-02-17T14:35:23.932Z,16.02
2019-02-17T14:37:55.712Z,10.20
2019-02-17T14:40:27.510Z,13.98
2019-02-17T14:42:59.234Z,9.98
2019-02-17T14:45:30.987Z,10.23
2019-02-17T14:48:02.708Z,8.33
2019-02-17T14:50:34.397Z,8.15
2019-02-17T14:53:06.087Z,9.00
2019-02-17T14:55:37.768Z,7.62
2019-02-17T14:58:09.530Z,8.33
2019-02-17T15:00:41.258Z,8.80
2019-02-17T15:03:12.953Z,9.28
2019-02-17T15:05:44.687Z,9.63
2019-02-17T15:08:16.386Z,8.30
2019-02-17T15:10:48.083Z,9.20
2019-02-17T15:13:24.534Z,8.75
2019-02-17T15:15:53.156Z,8.93
2019-02-17T15:18:24.986Z,8.98
2019-02-17T15:20:56.776Z,9.20
2019-02-17T15:23:28.438Z,8.78
2019-02-17T15:26:00.162Z,8.98
2019-02-17T15:28:31.959Z,10.98
2019-02-17T15:31:03.680Z,6.60
2019-02-17T15:33:35.433Z,9.15
2019-02-17T15:36:07.201Z,11.45
2019-02-17T15:38:39.008Z,9.18
2019-02-17T15:41:10.838Z,10.95
2019-02-17T15:43:42.572Z,7.17
2019-02-17T15:46:14.338Z,8.48
2019-02-17T15:48:46.119Z,8.53
2019-02-17T15:51:17.954Z,9.25
2019-02-17T15:53:49.735Z,8.83
2019-02-17T15:56:21.471Z,7.55
2019-02-17T15:58:53.272Z,9.15
2019-02-17T16:01:25.067Z,6.75
2019-02-17T16:03:56.805Z,11.83
2019-02-17T16:06:28.524Z,8.55
2019-02-17T16:09:00.218Z,7.17
2019-02-17T16:11:31.997Z,13.08
2019-02-17T16:14:03.699Z,6.75
2019-02-17T16:16:35.538Z,8.57
2019-02-17T16:19:07.287Z,9.88
2019-02-17T16:21:39.014Z,9.90
2019-02-17T16:24:10.757Z,8.50
2019-02-17T16:26:42.505Z,9.30
2019-02-17T16:29:14.240Z,7.67
2019-02-17T16:31:46.058Z,8.50
2019-02-17T16:34:17.890Z,5.40
2019-02-17T16:36:49.671Z,9.17
2019-02-17T16:39:21.377Z,10.55
2019-02-17T16:41:53.134Z,8.08
2019-02-17T16:44:24.837Z,8.67
2019-02-17T16:46:56.524Z,6.50
2019-02-17T16:49:28.353Z,12.78
2019-02-17T16:52:00.130Z,7.20
2019-02-17T16:54:31.832Z,6.70
2019-02-17T16:57:03.606Z,8.65
2019-02-17T16:59:35.392Z,10.15
2019-02-17T17:02:07.099Z,11.20
2019-02-17T17:04:47.819Z,11.55
2019-02-17T17:07:12.276Z,10.65
2019-02-17T17:09:43.984Z,10.30
2019-02-17T17:12:15.832Z,13.67
2019-02-17T17:14:48.552Z,8.27
2019-02-17T17:17:20.218Z,7.77
2019-02-17T17:19:51.938Z,8.68
2019-02-17T17:22:23.695Z,9.78
2019-02-17T17:24:55.406Z,7.43
2019-02-17T17:27:27.257Z,8.70
2019-02-17T17:29:59.048Z,7.57
2019-02-17T17:32:30.838Z,10.60
2019-02-17T17:35:02.632Z,7.33
2019-02-17T17:37:34.356Z,10.60
2019-02-17T17:40:07.402Z,6.97
2019-02-17T17:42:39.356Z,6.40
2019-02-17T17:45:12.660Z,10.00
2019-02-17T17:47:44.457Z,11.23
2019-02-17T17:50:16.163Z,10.13
2019-02-17T17:52:48.073Z,10.20
2019-02-17T17:55:19.871Z,9.73
2019-02-17T17:57:51.565Z,9.60
2019-02-17T18:00:24.801Z,9.13
2019-02-17T18:02:56.549Z,15.40
2019-02-17T18:05:28.224Z,9.00
2019-02-17T18:07:59.969Z,10.07
2019-02-17T18:10:31.762Z,9.83
2019-02-17T18:13:03.497Z,10.13
2019-02-17T18:15:35.378Z,7.63
2019-02-17T18:18:07.272Z,9.23
2019-02-17T18:20:39.079Z,22.73
2019-02-17T18:23:10.825Z,13.83
2019-02-17T18:25:42.523Z,10.10
2019-02-17T18:28:14.361Z,12.03
2019-02-17T18:30:46.085Z,10.30
2019-02-17T18:33:17.780Z,9.43
2019-02-17T18:35:49.849Z,8.00
2019-02-17T18:38:21.647Z,11.57
2019-02-17T18:40:53.318Z,10.00
2019-02-17T18:43:25.046Z,12.90
2019-02-17T18:45:56.730Z,10.67
2019-02-17T18:48:28.537Z,11.90
2019-02-17T18:51:00.319Z,8.77
2019-02-17T18:53:32.032Z,9.07
2019-02-17T18:56:03.850Z,12.53
2019-02-17T18:58:35.558Z,11.10
2019-02-17T19:01:07.283Z,11.57
2019-02-17T19:03:39.074Z,11.80
2019-02-17T19:06:10.837Z,17.93
2019-02-17T19:08:42.558Z,13.83
2019-02-17T19:11:14.256Z,10.03
2019-02-17T19:13:45.957Z,10.13
2019-02-17T19:16:17.690Z,12.03
2019-02-17T19:18:49.388Z,14.40
2019-02-17T19:21:21.251Z,11.30
2019-02-17T19:23:53.001Z,11.60
2019-02-17T19:26:24.797Z,13.47
2019-02-17T19:28:56.503Z,12.37
2019-02-17T19:31:28.346Z,14.00
2019-02-17T19:34:00.524Z,16.43
2019-02-17T19:36:32.353Z,11.57
2019-02-17T19:39:05.738Z,15.60
2019-02-17T19:41:37.462Z,13.50
2019-02-17T19:44:09.145Z,14.50
2019-02-17T19:46:40.902Z,14.37
2019-02-17T19:49:12.633Z,14.77
2019-02-17T19:51:44.417Z,11.90
2019-02-17T19:54:16.171Z,17.43
2019-02-17T19:56:48.063Z,13.80
2019-02-17T19:59:20.013Z,13.70
2019-02-17T20:01:51.813Z,14.43
2019-02-17T20:04:32.862Z,14.30
2019-02-17T20:07:04.733Z,14.63
2019-02-17T20:09:36.469Z,12.77
2019-02-17T20:12:08.210Z,14.83
2019-02-17T20:14:40.051Z,11.93
2019-02-17T20:17:11.839Z,12.60
2019-02-17T20:19:43.571Z,14.03
2019-02-17T20:22:15.255Z,17.13
2019-02-17T20:24:47.012Z,10.77
2019-02-17T20:27:18.774Z,12.90
2019-02-17T20:29:50.588Z,14.70
2019-02-17T20:32:22.433Z,14.33
2019-02-17T20:34:54.207Z,12.67
2019-02-17T20:37:26.022Z,19.30
2019-02-17T20:39:57.735Z,21.53
2019-02-17T20:42:29.511Z,18.87
2019-02-17T20:45:01.346Z,13.97
2019-02-17T20:47:33.178Z,17.37
2019-02-17T20:50:05.196Z,17.10
2019-02-17T20:52:36.970Z,15.70
2019-02-17T20:55:08.742Z,18.13
2019-02-17T20:57:40.815Z,14.87
2019-02-17T21:00:12.552Z,16.13
2019-02-17T21:02:44.314Z,14.70
2019-02-17T21:05:16.079Z,15.63
2019-02-17T21:07:47.896Z,12.90
2019-02-17T21:10:19.720Z,13.70
2019-02-17T21:12:51.450Z,14.13
2019-02-17T21:15:23.955Z,18.10
2019-02-17T21:17:55.773Z,16.90
2019-02-17T21:20:27.560Z,13.57
2019-02-17T21:22:59.345Z,16.30
2019-02-17T21:25:31.085Z,14.33
2019-02-17T21:28:02.792Z,16.50
2019-02-17T21:30:34.540Z,16.47
2019-02-17T21:33:06.231Z,16.33
2019-02-17T21:35:37.970Z,16.20
2019-02-17T21:38:09.774Z,15.93
2019-02-17T21:40:41.517Z,17.23
2019-02-17T21:43:13.251Z,12.93
2019-02-17T21:45:44.973Z,13.53
2019-02-17T21:48:16.683Z,15.57
2019-02-17T21:50:48.400Z,15.07
2019-02-17T21:53:20.954Z,12.17
2019-02-17T21:55:52.855Z,16.10
2019-02-17T21:58:24.732Z,14.00
2019-02-17T22:00:56.463Z,11.63
2019-02-17T22:03:28.240Z,16.57
2019-02-17T22:05:59.973Z,17.50
2019-02-17T22:08:31.705Z,12.40
2019-02-17T22:11:03.409Z,16.20
2019-02-17T22:13:35.094Z,13.87
2019-02-17T22:16:06.815Z,17.23
2019-02-17T22:18:38.523Z,21.80
2019-02-17T22:21:10.236Z,15.87
2019-02-17T22:23:41.911Z,16.90
2019-02-17T22:26:13.674Z,16.53
2019-02-17T22:28:45.458Z,19.17
2019-02-17T22:31:17.168Z,19.00
2019-02-17T22:33:48.836Z,17.73
2019-02-17T22:36:20.580Z,17.20
2019-02-17T22:38:52.298Z,14.47
2019-02-17T22:41:23.996Z,18.67
2019-02-17T22:43:55.781Z,17.47
2019-02-17T22:46:27.603Z,18.90
2019-02-17T22:48:59.298Z,17.20
2019-02-17T22:51:31.016Z,13.17
2019-02-17T22:54:02.793Z,12.33
2019-02-17T22:56:34.664Z,15.90
2019-02-17T22:59:06.411Z,15.13
2019-02-17T23:01:38.193Z,12.73
2019-02-17T23:04:09.906Z,14.63
2019-02-17T23:06:41.683Z,12.83
2019-02-17T23:09:14.051Z,12.03
2019-02-17T23:11:45.817Z,19.30
2019-02-17T23:14:17.624Z,14.77
2019-02-17T23:16:49.412Z,14.27
2019-02-17T23:19:21.171Z,14.50
2019-02-17T23:21:52.931Z,14.90
2019-02-17T23:24:24.891Z,13.10
2019-02-17T23:26:56.579Z,16.10
2019-02-17T23:29:28.239Z,14.67
2019-02-17T23:32:00.038Z,13.63
2019-02-17T23:34:31.720Z,18.67
2019-02-17T23:37:04.327Z,14.37
2019-02-17T23:39:36.174Z,14.43
2019-02-17T23:42:07.850Z,16.43
2019-02-17T23:44:39.506Z,16.13
2019-02-17T23:47:11.188Z,14.93
2019-02-17T23:49:42.869Z,13.33
2019-02-17T23:52:14.552Z,13.13
2019-02-17T23:54:46.219Z,13.10
2019-02-17T23:57:17.977Z,15.00
2019-02-17T23:59:49.646Z,16.83
